sensor_id;sensor_type;location;lat;lon;timestamp;P1;durP1;ratioP1;P2;durP2;ratioP2
41661;SDS011;27351;45.992;12.666;2022-12-29T00:01:14;15.80;;;8.68;;
41661;SDS011;27351;45.992;12.666;2022-12-29T00:03:40;14.23;;;8.07;;
41661;SDS011;27351;45.992;12.666;2022-12-29T00:06:05;14.57;;;8.43;;
41661;SDS011;27351;45.992;12.666;2022-12-29T00:08:31;14.77;;;8.45;;
41661;SDS011;27351;45.992;12.666;2022-12-29T00:11:10;14.88;;;8.88;;
41661;SDS011;27351;45.992;12.666;2022-12-29T00:13:36;15.90;;;9.50;;
41661;SDS011;27351;45.992;12.666;2022-12-29T00:16:20;16.48;;;8.98;;
41661;SDS011;27351;45.992;12.666;2022-12-29T00:18:46;13.17;;;8.47;;
41661;SDS011;27351;45.992;12.666;2022-12-29T00:21:15;15.27;;;9.33;;
41661;SDS011;27351;45.992;12.666;2022-12-29T00:24:00;14.60;;;9.00;;
41661;SDS011;27351;45.992;12.666;2022-12-29T00:26:44;13.77;;;8.77;;
41661;SDS011;27351;45.992;12.666;2022-12-29T00:29:28;15.57;;;9.10;;
41661;SDS011;27351;45.992;12.666;2022-12-29T00:32:12;16.35;;;8.93;;
41661;SDS011;27351;45.992;12.666;2022-12-29T00:34:56;13.80;;;9.13;;
41661;SDS011;27351;45.992;12.666;2022-12-29T00:37:35;16.45;;;9.10;;
41661;SDS011;27351;45.992;12.666;2022-12-29T00:40:19;16.13;;;9.07;;
41661;SDS011;27351;45.992;12.666;2022-12-29T00:43:03;13.25;;;7.85;;
41661;SDS011;27351;45.992;12.666;2022-12-29T00:45:48;15.57;;;9.77;;
41661;SDS011;27351;45.992;12.666;2022-12-29T00:48:13;16.67;;;9.80;;
41661;SDS011;27351;45.992;12.666;2022-12-29T00:50:39;14.77;;;9.23;;
41661;SDS011;27351;45.992;12.666;2022-12-29T00:53:04;15.73;;;8.52;;
41661;SDS011;27351;45.992;12.666;2022-12-29T00:55:30;14.43;;;9.23;;
41661;SDS011;27351;45.992;12.666;2022-12-29T00:57:55;14.00;;;8.80;;
41661;SDS011;27351;45.992;12.666;2022-12-29T01:02:46;13.70;;;8.40;;
41661;SDS011;27351;45.992;12.666;2022-12-29T01:05:11;14.57;;;8.57;;
41661;SDS011;27351;45.992;12.666;2022-12-29T01:07:37;12.67;;;8.03;;
41661;SDS011;27351;45.992;12.666;2022-12-29T01:10:03;14.63;;;7.97;;
41661;SDS011;27351;45.992;12.666;2022-12-29T01:12:37;16.15;;;8.75;;
41661;SDS011;27351;45.992;12.666;2022-12-29T01:15:09;12.82;;;7.82;;
41661;SDS011;27351;45.992;12.666;2022-12-29T01:17:35;13.50;;;8.35;;
41661;SDS011;27351;45.992;12.666;2022-12-29T01:20:01;13.13;;;7.57;;
41661;SDS011;27351;45.992;12.666;2022-12-29T01:22:27;12.85;;;7.10;;
41661;SDS011;27351;45.992;12.666;2022-12-29T01:24:54;13.83;;;7.77;;
41661;SDS011;27351;45.992;12.666;2022-12-29T01:27:20;13.07;;;7.90;;
41661;SDS011;27351;45.992;12.666;2022-12-29T01:29:45;11.57;;;7.07;;
41661;SDS011;27351;45.992;12.666;2022-12-29T01:32:11;13.90;;;7.63;;
41661;SDS011;27351;45.992;12.666;2022-12-29T01:34:37;11.75;;;6.88;;
41661;SDS011;27351;45.992;12.666;2022-12-29T01:37:03;12.03;;;7.10;;
41661;SDS011;27351;45.992;12.666;2022-12-29T01:39:28;12.90;;;7.47;;
41661;SDS011;27351;45.992;12.666;2022-12-29T01:41:54;14.10;;;7.37;;
41661;SDS011;27351;45.992;12.666;2022-12-29T01:47:04;13.60;;;7.95;;
41661;SDS011;27351;45.992;12.666;2022-12-29T01:49:30;14.53;;;7.80;;
41661;SDS011;27351;45.992;12.666;2022-12-29T01:51:57;16.70;;;8.50;;
41661;SDS011;27351;45.992;12.666;2022-12-29T01:54:26;12.07;;;7.47;;
41661;SDS011;27351;45.992;12.666;2022-12-29T01:56:54;12.48;;;7.80;;
41661;SDS011;27351;45.992;12.666;2022-12-29T01:59:22;13.07;;;7.55;;
41661;SDS011;27351;45.992;12.666;2022-12-29T02:01:50;13.45;;;7.30;;
41661;SDS011;27351;45.992;12.666;2022-12-29T02:04:15;12.20;;;6.80;;
41661;SDS011;27351;45.992;12.666;2022-12-29T02:06:46;12.88;;;7.57;;
41661;SDS011;27351;45.992;12.666;2022-12-29T02:09:14;14.15;;;7.97;;
41661;SDS011;27351;45.992;12.666;2022-12-29T02:11:40;13.10;;;7.93;;
41661;SDS011;27351;45.992;12.666;2022-12-29T02:14:09;13.87;;;7.70;;
41661;SDS011;27351;45.992;12.666;2022-12-29T02:16:40;15.13;;;8.83;;
41661;SDS011;27351;45.992;12.666;2022-12-29T02:24:08;15.48;;;8.68;;
41661;SDS011;27351;45.992;12.666;2022-12-29T02:29:36;16.13;;;8.77;;
41661;SDS011;27351;45.992;12.666;2022-12-29T02:34:44;14.07;;;8.20;;
41661;SDS011;27351;45.992;12.666;2022-12-29T02:37:48;13.82;;;8.05;;
41661;SDS011;27351;45.992;12.666;2022-12-29T02:42:36;16.70;;;9.60;;
41661;SDS011;27351;45.992;12.666;2022-12-29T02:45:12;17.05;;;9.15;;
41661;SDS011;27351;45.992;12.666;2022-12-29T02:47:56;15.37;;;8.87;;
41661;SDS011;27351;45.992;12.666;2022-12-29T02:50:26;14.13;;;9.02;;
41661;SDS011;27351;45.992;12.666;2022-12-29T02:53:04;13.82;;;8.32;;
41661;SDS011;27351;45.992;12.666;2022-12-29T02:55:33;14.57;;;8.73;;
41661;SDS011;27351;45.992;12.666;2022-12-29T03:00:34;14.73;;;9.68;;
41661;SDS011;27351;45.992;12.666;2022-12-29T03:06:14;17.13;;;9.30;;
41661;SDS011;27351;45.992;12.666;2022-12-29T03:08:50;16.98;;;9.43;;
41661;SDS011;27351;45.992;12.666;2022-12-29T03:11:20;15.10;;;9.32;;
41661;SDS011;27351;45.992;12.666;2022-12-29T03:19:48;15.93;;;9.27;;
41661;SDS011;27351;45.992;12.666;2022-12-29T03:22:18;15.48;;;9.23;;
41661;SDS011;27351;45.992;12.666;2022-12-29T03:25:05;15.23;;;9.07;;
41661;SDS011;27351;45.992;12.666;2022-12-29T03:27:34;15.65;;;9.55;;
41661;SDS011;27351;45.992;12.666;2022-12-29T03:30:01;14.93;;;9.13;;
41661;SDS011;27351;45.992;12.666;2022-12-29T03:32:33;15.77;;;9.82;;
41661;SDS011;27351;45.992;12.666;2022-12-29T03:34:59;17.38;;;9.38;;
41661;SDS011;27351;45.992;12.666;2022-12-29T03:37:26;15.15;;;8.85;;
41661;SDS011;27351;45.992;12.666;2022-12-29T03:39:54;14.00;;;8.57;;
41661;SDS011;27351;45.992;12.666;2022-12-29T03:42:20;15.98;;;9.40;;
41661;SDS011;27351;45.992;12.666;2022-12-29T03:44:49;15.55;;;9.77;;
41661;SDS011;27351;45.992;12.666;2022-12-29T03:47:18;14.93;;;8.90;;
41661;SDS011;27351;45.992;12.666;2022-12-29T03:49:45;14.55;;;9.48;;
41661;SDS011;27351;45.992;12.666;2022-12-29T03:52:11;16.77;;;10.43;;
41661;SDS011;27351;45.992;12.666;2022-12-29T03:54:41;15.50;;;9.52;;
41661;SDS011;27351;45.992;12.666;2022-12-29T03:57:08;20.57;;;10.67;;
41661;SDS011;27351;45.992;12.666;2022-12-29T04:00:08;17.20;;;10.50;;
41661;SDS011;27351;45.992;12.666;2022-12-29T04:02:40;17.20;;;9.80;;
41661;SDS011;27351;45.992;12.666;2022-12-29T04:05:06;21.08;;;10.18;;
41661;SDS011;27351;45.992;12.666;2022-12-29T04:07:32;17.55;;;9.45;;
41661;SDS011;27351;45.992;12.666;2022-12-29T04:09:59;15.75;;;9.57;;
41661;SDS011;27351;45.992;12.666;2022-12-29T04:12:26;14.65;;;9.02;;
41661;SDS011;27351;45.992;12.666;2022-12-29T04:14:52;17.52;;;10.25;;
41661;SDS011;27351;45.992;12.666;2022-12-29T04:17:18;15.60;;;9.63;;
41661;SDS011;27351;45.992;12.666;2022-12-29T04:19:47;18.52;;;10.27;;
41661;SDS011;27351;45.992;12.666;2022-12-29T04:22:12;17.10;;;9.73;;
41661;SDS011;27351;45.992;12.666;2022-12-29T04:24:39;18.00;;;9.35;;
41661;SDS011;27351;45.992;12.666;2022-12-29T04:27:04;15.87;;;9.43;;
41661;SDS011;27351;45.992;12.666;2022-12-29T04:29:50;16.17;;;9.95;;
41661;SDS011;27351;45.992;12.666;2022-12-29T04:32:35;18.45;;;10.00;;
41661;SDS011;27351;45.992;12.666;2022-12-29T04:35:00;18.53;;;10.73;;
41661;SDS011;27351;45.992;12.666;2022-12-29T04:37:27;17.05;;;9.77;;
41661;SDS011;27351;45.992;12.666;2022-12-29T04:39:52;16.40;;;9.97;;
41661;SDS011;27351;45.992;12.666;2022-12-29T04:42:18;19.10;;;10.00;;
41661;SDS011;27351;45.992;12.666;2022-12-29T04:44:44;20.55;;;11.80;;
41661;SDS011;27351;45.992;12.666;2022-12-29T04:47:13;17.60;;;10.47;;
41661;SDS011;27351;45.992;12.666;2022-12-29T04:50:02;19.13;;;11.82;;
41661;SDS011;27351;45.992;12.666;2022-12-29T04:52:37;21.47;;;12.40;;
41661;SDS011;27351;45.992;12.666;2022-12-29T04:55:04;21.50;;;12.38;;
41661;SDS011;27351;45.992;12.666;2022-12-29T04:57:30;23.05;;;13.10;;
41661;SDS011;27351;45.992;12.666;2022-12-29T04:59:58;20.45;;;11.52;;
41661;SDS011;27351;45.992;12.666;2022-12-29T05:02:24;20.85;;;11.50;;
41661;SDS011;27351;45.992;12.666;2022-12-29T05:04:50;19.80;;;11.23;;
41661;SDS011;27351;45.992;12.666;2022-12-29T05:07:16;23.33;;;10.93;;
41661;SDS011;27351;45.992;12.666;2022-12-29T05:09:43;19.25;;;10.93;;
41661;SDS011;27351;45.992;12.666;2022-12-29T05:12:09;20.23;;;10.48;;
41661;SDS011;27351;45.992;12.666;2022-12-29T05:14:41;17.10;;;10.38;;
41661;SDS011;27351;45.992;12.666;2022-12-29T05:17:07;17.25;;;9.75;;
41661;SDS011;27351;45.992;12.666;2022-12-29T05:19:33;15.77;;;9.70;;
41661;SDS011;27351;45.992;12.666;2022-12-29T05:21:59;17.83;;;10.83;;
41661;SDS011;27351;45.992;12.666;2022-12-29T05:24:24;17.43;;;10.17;;
41661;SDS011;27351;45.992;12.666;2022-12-29T05:26:53;14.93;;;9.57;;
41661;SDS011;27351;45.992;12.666;2022-12-29T05:29:57;18.27;;;10.00;;
41661;SDS011;27351;45.992;12.666;2022-12-29T05:32:23;16.98;;;9.73;;
41661;SDS011;27351;45.992;12.666;2022-12-29T05:34:49;17.23;;;9.52;;
41661;SDS011;27351;45.992;12.666;2022-12-29T05:37:17;16.88;;;9.85;;
41661;SDS011;27351;45.992;12.666;2022-12-29T05:39:42;16.73;;;9.55;;
41661;SDS011;27351;45.992;12.666;2022-12-29T05:42:08;18.30;;;9.35;;
41661;SDS011;27351;45.992;12.666;2022-12-29T05:44:54;15.13;;;9.03;;
41661;SDS011;27351;45.992;12.666;2022-12-29T05:47:41;18.45;;;9.57;;
41661;SDS011;27351;45.992;12.666;2022-12-29T05:50:39;18.35;;;10.10;;
41661;SDS011;27351;45.992;12.666;2022-12-29T05:53:10;18.25;;;10.25;;
41661;SDS011;27351;45.992;12.666;2022-12-29T05:55:37;18.33;;;9.43;;
41661;SDS011;27351;45.992;12.666;2022-12-29T05:58:04;16.55;;;9.18;;
41661;SDS011;27351;45.992;12.666;2022-12-29T06:00:30;16.03;;;8.93;;
41661;SDS011;27351;45.992;12.666;2022-12-29T06:02:57;17.55;;;9.40;;
41661;SDS011;27351;45.992;12.666;2022-12-29T06:05:22;18.63;;;9.87;;
41661;SDS011;27351;45.992;12.666;2022-12-29T06:07:48;18.30;;;10.40;;
41661;SDS011;27351;45.992;12.666;2022-12-29T06:10:16;19.48;;;10.30;;
41661;SDS011;27351;45.992;12.666;2022-12-29T06:12:58;17.10;;;10.10;;
41661;SDS011;27351;45.992;12.666;2022-12-29T06:15:24;20.63;;;11.53;;
41661;SDS011;27351;45.992;12.666;2022-12-29T06:17:49;19.87;;;10.13;;
41661;SDS011;27351;45.992;12.666;2022-12-29T06:20:16;19.37;;;11.37;;
41661;SDS011;27351;45.992;12.666;2022-12-29T06:22:42;20.33;;;10.13;;
41661;SDS011;27351;45.992;12.666;2022-12-29T06:25:08;19.75;;;10.98;;
41661;SDS011;27351;45.992;12.666;2022-12-29T06:27:34;19.80;;;10.88;;
41661;SDS011;27351;45.992;12.666;2022-12-29T06:30:00;18.15;;;9.75;;
41661;SDS011;27351;45.992;12.666;2022-12-29T06:32:27;17.10;;;9.43;;
41661;SDS011;27351;45.992;12.666;2022-12-29T06:34:55;17.98;;;10.02;;
41661;SDS011;27351;45.992;12.666;2022-12-29T06:37:21;16.93;;;9.03;;
41661;SDS011;27351;45.992;12.666;2022-12-29T06:39:46;17.73;;;10.17;;
41661;SDS011;27351;45.992;12.666;2022-12-29T06:42:13;17.45;;;9.65;;
41661;SDS011;27351;45.992;12.666;2022-12-29T06:44:41;17.40;;;9.48;;
41661;SDS011;27351;45.992;12.666;2022-12-29T06:47:09;19.25;;;10.57;;
41661;SDS011;27351;45.992;12.666;2022-12-29T06:49:34;19.10;;;10.65;;
41661;SDS011;27351;45.992;12.666;2022-12-29T06:52:00;18.08;;;9.45;;
41661;SDS011;27351;45.992;12.666;2022-12-29T06:54:29;18.98;;;9.90;;
41661;SDS011;27351;45.992;12.666;2022-12-29T06:56:54;19.83;;;10.05;;
41661;SDS011;27351;45.992;12.666;2022-12-29T06:59:20;21.17;;;10.35;;
41661;SDS011;27351;45.992;12.666;2022-12-29T07:01:45;19.77;;;10.65;;
41661;SDS011;27351;45.992;12.666;2022-12-29T07:04:11;18.42;;;9.70;;
41661;SDS011;27351;45.992;12.666;2022-12-29T07:06:36;18.50;;;10.48;;
41661;SDS011;27351;45.992;12.666;2022-12-29T07:09:02;19.60;;;9.88;;
41661;SDS011;27351;45.992;12.666;2022-12-29T07:11:27;18.17;;;10.30;;
41661;SDS011;27351;45.992;12.666;2022-12-29T07:13:53;16.25;;;8.82;;
41661;SDS011;27351;45.992;12.666;2022-12-29T07:16:19;17.17;;;8.63;;
41661;SDS011;27351;45.992;12.666;2022-12-29T07:18:45;17.25;;;9.23;;
41661;SDS011;27351;45.992;12.666;2022-12-29T07:21:10;18.33;;;9.83;;
41661;SDS011;27351;45.992;12.666;2022-12-29T07:23:37;16.52;;;8.73;;
41661;SDS011;27351;45.992;12.666;2022-12-29T07:26:03;15.70;;;8.55;;
41661;SDS011;27351;45.992;12.666;2022-12-29T07:28:29;16.15;;;8.82;;
41661;SDS011;27351;45.992;12.666;2022-12-29T07:30:54;16.95;;;9.40;;
41661;SDS011;27351;45.992;12.666;2022-12-29T07:33:20;17.48;;;8.82;;
41661;SDS011;27351;45.992;12.666;2022-12-29T07:35:46;17.90;;;10.23;;
41661;SDS011;27351;45.992;12.666;2022-12-29T07:38:12;19.25;;;10.63;;
41661;SDS011;27351;45.992;12.666;2022-12-29T07:40:37;20.00;;;10.33;;
41661;SDS011;27351;45.992;12.666;2022-12-29T07:43:03;17.60;;;9.57;;
41661;SDS011;27351;45.992;12.666;2022-12-29T07:45:36;19.58;;;10.32;;
41661;SDS011;27351;45.992;12.666;2022-12-29T07:48:07;22.52;;;10.73;;
41661;SDS011;27351;45.992;12.666;2022-12-29T07:50:34;17.83;;;9.68;;
41661;SDS011;27351;45.992;12.666;2022-12-29T07:52:59;19.80;;;10.82;;
41661;SDS011;27351;45.992;12.666;2022-12-29T07:55:25;18.97;;;10.37;;
41661;SDS011;27351;45.992;12.666;2022-12-29T07:57:52;23.17;;;10.37;;
41661;SDS011;27351;45.992;12.666;2022-12-29T08:00:19;20.30;;;10.80;;
41661;SDS011;27351;45.992;12.666;2022-12-29T08:02:45;20.80;;;10.63;;
41661;SDS011;27351;45.992;12.666;2022-12-29T08:05:10;21.95;;;10.00;;
41661;SDS011;27351;45.992;12.666;2022-12-29T08:07:36;19.73;;;10.90;;
41661;SDS011;27351;45.992;12.666;2022-12-29T08:10:02;20.63;;;10.43;;
41661;SDS011;27351;45.992;12.666;2022-12-29T08:12:27;19.63;;;10.17;;
41661;SDS011;27351;45.992;12.666;2022-12-29T08:14:53;20.87;;;10.20;;
41661;SDS011;27351;45.992;12.666;2022-12-29T08:17:18;18.07;;;9.97;;
41661;SDS011;27351;45.992;12.666;2022-12-29T08:19:44;23.57;;;10.83;;
41661;SDS011;27351;45.992;12.666;2022-12-29T08:22:09;18.27;;;10.10;;
41661;SDS011;27351;45.992;12.666;2022-12-29T08:24:35;18.60;;;9.93;;
41661;SDS011;27351;45.992;12.666;2022-12-29T08:27:00;20.02;;;10.63;;
41661;SDS011;27351;45.992;12.666;2022-12-29T08:29:32;20.42;;;10.05;;
41661;SDS011;27351;45.992;12.666;2022-12-29T08:31:57;21.73;;;10.82;;
41661;SDS011;27351;45.992;12.666;2022-12-29T08:34:23;22.83;;;11.33;;
41661;SDS011;27351;45.992;12.666;2022-12-29T08:36:48;21.50;;;12.93;;
41661;SDS011;27351;45.992;12.666;2022-12-29T08:39:14;24.30;;;13.47;;
41661;SDS011;27351;45.992;12.666;2022-12-29T08:41:39;23.73;;;12.57;;
41661;SDS011;27351;45.992;12.666;2022-12-29T08:44:05;21.00;;;12.13;;
41661;SDS011;27351;45.992;12.666;2022-12-29T08:46:31;23.37;;;13.17;;
41661;SDS011;27351;45.992;12.666;2022-12-29T08:48:56;24.17;;;12.73;;
41661;SDS011;27351;45.992;12.666;2022-12-29T08:51:22;27.60;;;14.00;;
41661;SDS011;27351;45.992;12.666;2022-12-29T08:53:47;25.83;;;14.53;;
41661;SDS011;27351;45.992;12.666;2022-12-29T08:56:13;29.53;;;15.20;;
41661;SDS011;27351;45.992;12.666;2022-12-29T08:58:47;27.87;;;14.50;;
41661;SDS011;27351;45.992;12.666;2022-12-29T09:01:13;27.10;;;14.53;;
41661;SDS011;27351;45.992;12.666;2022-12-29T09:03:38;27.20;;;14.53;;
41661;SDS011;27351;45.992;12.666;2022-12-29T09:06:04;25.10;;;12.93;;
41661;SDS011;27351;45.992;12.666;2022-12-29T09:08:29;25.50;;;14.27;;
41661;SDS011;27351;45.992;12.666;2022-12-29T09:10:55;25.50;;;14.33;;
41661;SDS011;27351;45.992;12.666;2022-12-29T09:13:20;32.93;;;16.03;;
41661;SDS011;27351;45.992;12.666;2022-12-29T09:15:46;32.03;;;17.10;;
41661;SDS011;27351;45.992;12.666;2022-12-29T09:18:11;27.33;;;16.27;;
41661;SDS011;27351;45.992;12.666;2022-12-29T09:20:37;22.58;;;13.30;;
41661;SDS011;27351;45.992;12.666;2022-12-29T09:23:03;24.38;;;12.48;;
41661;SDS011;27351;45.992;12.666;2022-12-29T09:25:29;20.23;;;12.43;;
41661;SDS011;27351;45.992;12.666;2022-12-29T09:27:54;22.45;;;12.80;;
41661;SDS011;27351;45.992;12.666;2022-12-29T09:30:21;26.60;;;14.30;;
41661;SDS011;27351;45.992;12.666;2022-12-29T09:32:47;24.40;;;13.32;;
41661;SDS011;27351;45.992;12.666;2022-12-29T09:35:16;25.85;;;13.75;;
41661;SDS011;27351;45.992;12.666;2022-12-29T09:37:42;24.27;;;12.45;;
41661;SDS011;27351;45.992;12.666;2022-12-29T09:40:10;21.30;;;11.40;;
41661;SDS011;27351;45.992;12.666;2022-12-29T09:45:29;21.55;;;12.02;;
41661;SDS011;27351;45.992;12.666;2022-12-29T09:47:57;23.10;;;11.68;;
41661;SDS011;27351;45.992;12.666;2022-12-29T09:50:41;22.98;;;12.32;;
41661;SDS011;27351;45.992;12.666;2022-12-29T09:53:18;18.85;;;10.98;;
41661;SDS011;27351;45.992;12.666;2022-12-29T09:55:48;24.55;;;12.65;;
41661;SDS011;27351;45.992;12.666;2022-12-29T10:00:43;22.00;;;11.60;;
41661;SDS011;27351;45.992;12.666;2022-12-29T10:05:46;21.52;;;11.88;;
41661;SDS011;27351;45.992;12.666;2022-12-29T10:10:59;25.73;;;12.38;;
41661;SDS011;27351;45.992;12.666;2022-12-29T10:16:04;25.10;;;12.60;;
41661;SDS011;27351;45.992;12.666;2022-12-29T10:18:40;24.13;;;13.20;;
41661;SDS011;27351;45.992;12.666;2022-12-29T10:23:40;23.23;;;12.30;;
41661;SDS011;27351;45.992;12.666;2022-12-29T10:26:50;24.50;;;13.07;;
41661;SDS011;27351;45.992;12.666;2022-12-29T10:28:57;24.73;;;13.18;;
41661;SDS011;27351;45.992;12.666;2022-12-29T10:31:25;27.65;;;14.52;;
41661;SDS011;27351;45.992;12.666;2022-12-29T10:33:53;28.92;;;14.25;;
41661;SDS011;27351;45.992;12.666;2022-12-29T10:36:24;27.35;;;14.02;;
41661;SDS011;27351;45.992;12.666;2022-12-29T10:41:36;26.67;;;14.43;;
41661;SDS011;27351;45.992;12.666;2022-12-29T10:44:03;23.83;;;12.75;;
41661;SDS011;27351;45.992;12.666;2022-12-29T10:46:35;25.42;;;14.32;;
41661;SDS011;27351;45.992;12.666;2022-12-29T10:49:02;25.08;;;13.70;;
41661;SDS011;27351;45.992;12.666;2022-12-29T10:51:30;26.52;;;14.00;;
41661;SDS011;27351;45.992;12.666;2022-12-29T10:54:01;25.23;;;13.38;;
41661;SDS011;27351;45.992;12.666;2022-12-29T10:58:57;25.70;;;14.10;;
41661;SDS011;27351;45.992;12.666;2022-12-29T11:01:25;28.13;;;14.65;;
41661;SDS011;27351;45.992;12.666;2022-12-29T11:04:00;27.35;;;14.15;;
41661;SDS011;27351;45.992;12.666;2022-12-29T11:06:28;25.02;;;14.32;;
41661;SDS011;27351;45.992;12.666;2022-12-29T11:09:16;24.52;;;14.50;;
41661;SDS011;27351;45.992;12.666;2022-12-29T11:11:44;25.58;;;14.73;;
41661;SDS011;27351;45.992;12.666;2022-12-29T11:14:14;28.90;;;15.75;;
41661;SDS011;27351;45.992;12.666;2022-12-29T11:16:41;27.45;;;14.65;;
41661;SDS011;27351;45.992;12.666;2022-12-29T11:19:51;24.45;;;13.30;;
41661;SDS011;27351;45.992;12.666;2022-12-29T11:22:14;27.25;;;14.57;;
41661;SDS011;27351;45.992;12.666;2022-12-29T11:24:46;25.55;;;14.65;;
41661;SDS011;27351;45.992;12.666;2022-12-29T11:27:19;25.75;;;14.07;;
41661;SDS011;27351;45.992;12.666;2022-12-29T11:29:48;27.15;;;14.50;;
41661;SDS011;27351;45.992;12.666;2022-12-29T11:32:19;27.90;;;15.63;;
41661;SDS011;27351;45.992;12.666;2022-12-29T11:34:45;25.45;;;14.50;;
41661;SDS011;27351;45.992;12.666;2022-12-29T11:42:12;27.77;;;15.60;;
41661;SDS011;27351;45.992;12.666;2022-12-29T11:44:41;34.13;;;17.02;;
41661;SDS011;27351;45.992;12.666;2022-12-29T11:47:08;28.95;;;16.73;;
41661;SDS011;27351;45.992;12.666;2022-12-29T11:49:35;28.17;;;15.70;;
41661;SDS011;27351;45.992;12.666;2022-12-29T11:52:00;26.37;;;14.33;;
41661;SDS011;27351;45.992;12.666;2022-12-29T11:54:29;26.27;;;14.57;;
41661;SDS011;27351;45.992;12.666;2022-12-29T11:56:56;28.33;;;14.55;;
41661;SDS011;27351;45.992;12.666;2022-12-29T12:02:20;21.48;;;12.90;;
41661;SDS011;27351;45.992;12.666;2022-12-29T12:04:50;23.35;;;13.90;;
41661;SDS011;27351;45.992;12.666;2022-12-29T12:07:22;22.17;;;13.10;;
41661;SDS011;27351;45.992;12.666;2022-12-29T12:09:50;25.10;;;12.50;;
41661;SDS011;27351;45.992;12.666;2022-12-29T12:12:24;25.95;;;13.70;;
41661;SDS011;27351;45.992;12.666;2022-12-29T12:14:54;24.10;;;13.70;;
41661;SDS011;27351;45.992;12.666;2022-12-29T12:20:44;25.53;;;14.57;;
41661;SDS011;27351;45.992;12.666;2022-12-29T12:25:55;25.00;;;14.27;;
41661;SDS011;27351;45.992;12.666;2022-12-29T12:30:52;26.00;;;13.85;;
41661;SDS011;27351;45.992;12.666;2022-12-29T12:33:29;25.40;;;13.63;;
41661;SDS011;27351;45.992;12.666;2022-12-29T12:38:40;24.57;;;14.27;;
41661;SDS011;27351;45.992;12.666;2022-12-29T12:41:15;24.83;;;13.48;;
41661;SDS011;27351;45.992;12.666;2022-12-29T12:57:17;25.60;;;14.05;;
41661;SDS011;27351;45.992;12.666;2022-12-29T12:59:49;23.73;;;13.80;;
41661;SDS011;27351;45.992;12.666;2022-12-29T13:02:24;24.65;;;14.38;;
41661;SDS011;27351;45.992;12.666;2022-12-29T13:10:24;22.58;;;13.60;;
41661;SDS011;27351;45.992;12.666;2022-12-29T13:18:05;25.70;;;13.10;;
41661;SDS011;27351;45.992;12.666;2022-12-29T13:20:47;28.33;;;13.88;;
41661;SDS011;27351;45.992;12.666;2022-12-29T13:25:54;24.08;;;12.85;;
41661;SDS011;27351;45.992;12.666;2022-12-29T13:28:35;23.45;;;13.50;;
41661;SDS011;27351;45.992;12.666;2022-12-29T13:36:40;26.30;;;15.20;;
41661;SDS011;27351;45.992;12.666;2022-12-29T13:39:13;25.60;;;15.07;;
41661;SDS011;27351;45.992;12.666;2022-12-29T13:41:51;27.00;;;14.82;;
41661;SDS011;27351;45.992;12.666;2022-12-29T13:44:22;25.00;;;14.93;;
41661;SDS011;27351;45.992;12.666;2022-12-29T13:46:48;26.63;;;14.85;;
41661;SDS011;27351;45.992;12.666;2022-12-29T13:49:21;28.27;;;15.35;;
41661;SDS011;27351;45.992;12.666;2022-12-29T13:51:48;27.50;;;14.95;;
41661;SDS011;27351;45.992;12.666;2022-12-29T13:56:59;27.07;;;15.03;;
41661;SDS011;27351;45.992;12.666;2022-12-29T14:01:56;26.30;;;14.87;;
41661;SDS011;27351;45.992;12.666;2022-12-29T14:04:25;26.40;;;15.25;;
41661;SDS011;27351;45.992;12.666;2022-12-29T14:07:24;26.67;;;14.80;;
41661;SDS011;27351;45.992;12.666;2022-12-29T14:09:47;27.50;;;15.05;;
41661;SDS011;27351;45.992;12.666;2022-12-29T14:15:31;26.35;;;14.27;;
41661;SDS011;27351;45.992;12.666;2022-12-29T14:18:02;26.40;;;14.90;;
41661;SDS011;27351;45.992;12.666;2022-12-29T14:20:28;30.83;;;16.40;;
41661;SDS011;27351;45.992;12.666;2022-12-29T14:22:58;25.90;;;15.50;;
41661;SDS011;27351;45.992;12.666;2022-12-29T14:28:16;28.38;;;15.40;;
41661;SDS011;27351;45.992;12.666;2022-12-29T14:30:48;26.75;;;14.35;;
41661;SDS011;27351;45.992;12.666;2022-12-29T14:33:15;28.52;;;14.95;;
41661;SDS011;27351;45.992;12.666;2022-12-29T14:35:42;27.98;;;15.25;;
41661;SDS011;27351;45.992;12.666;2022-12-29T14:41:45;26.40;;;14.80;;
41661;SDS011;27351;45.992;12.666;2022-12-29T14:43:55;27.02;;;14.68;;
41661;SDS011;27351;45.992;12.666;2022-12-29T14:49:30;28.37;;;14.97;;
41661;SDS011;27351;45.992;12.666;2022-12-29T14:54:42;27.48;;;14.45;;
41661;SDS011;27351;45.992;12.666;2022-12-29T14:57:15;29.10;;;15.55;;
41661;SDS011;27351;45.992;12.666;2022-12-29T14:59:47;26.45;;;15.32;;
41661;SDS011;27351;45.992;12.666;2022-12-29T15:02:19;27.25;;;14.98;;
41661;SDS011;27351;45.992;12.666;2022-12-29T15:04:45;27.00;;;14.87;;
41661;SDS011;27351;45.992;12.666;2022-12-29T15:07:12;27.67;;;15.43;;
41661;SDS011;27351;45.992;12.666;2022-12-29T15:10:13;27.33;;;15.43;;
41661;SDS011;27351;45.992;12.666;2022-12-29T15:12:37;29.83;;;15.40;;
41661;SDS011;27351;45.992;12.666;2022-12-29T15:15:17;29.38;;;15.23;;
41661;SDS011;27351;45.992;12.666;2022-12-29T15:17:43;27.92;;;15.25;;
41661;SDS011;27351;45.992;12.666;2022-12-29T15:23:11;28.48;;;15.10;;
41661;SDS011;27351;45.992;12.666;2022-12-29T15:25:36;25.03;;;14.53;;
41661;SDS011;27351;45.992;12.666;2022-12-29T15:28:04;27.77;;;15.77;;
41661;SDS011;27351;45.992;12.666;2022-12-29T15:30:32;30.80;;;16.77;;
41661;SDS011;27351;45.992;12.666;2022-12-29T15:32:58;30.97;;;17.50;;
41661;SDS011;27351;45.992;12.666;2022-12-29T15:35:34;29.33;;;16.80;;
41661;SDS011;27351;45.992;12.666;2022-12-29T15:38:00;28.85;;;15.88;;
41661;SDS011;27351;45.992;12.666;2022-12-29T15:40:31;29.48;;;16.58;;
41661;SDS011;27351;45.992;12.666;2022-12-29T15:45:42;30.50;;;16.17;;
41661;SDS011;27351;45.992;12.666;2022-12-29T15:48:14;29.00;;;16.45;;
41661;SDS011;27351;45.992;12.666;2022-12-29T15:50:42;29.98;;;16.17;;
41661;SDS011;27351;45.992;12.666;2022-12-29T15:53:14;27.55;;;15.68;;
41661;SDS011;27351;45.992;12.666;2022-12-29T15:55:43;34.38;;;18.13;;
41661;SDS011;27351;45.992;12.666;2022-12-29T15:58:19;29.27;;;17.23;;
41661;SDS011;27351;45.992;12.666;2022-12-29T16:00:52;29.35;;;17.15;;
41661;SDS011;27351;45.992;12.666;2022-12-29T16:03:18;28.00;;;17.13;;
41661;SDS011;27351;45.992;12.666;2022-12-29T16:05:49;30.77;;;17.50;;
41661;SDS011;27351;45.992;12.666;2022-12-29T16:08:27;29.27;;;17.20;;
41661;SDS011;27351;45.992;12.666;2022-12-29T16:10:57;31.35;;;17.33;;
41661;SDS011;27351;45.992;12.666;2022-12-29T16:13:34;32.30;;;17.35;;
41661;SDS011;27351;45.992;12.666;2022-12-29T16:16:07;32.55;;;18.00;;
41661;SDS011;27351;45.992;12.666;2022-12-29T16:18:35;30.75;;;16.98;;
41661;SDS011;27351;45.992;12.666;2022-12-29T16:21:02;33.13;;;17.30;;
41661;SDS011;27351;45.992;12.666;2022-12-29T16:23:29;31.60;;;16.70;;
41661;SDS011;27351;45.992;12.666;2022-12-29T16:25:56;29.02;;;16.27;;
41661;SDS011;27351;45.992;12.666;2022-12-29T16:28:23;31.77;;;17.30;;
41661;SDS011;27351;45.992;12.666;2022-12-29T16:31:02;29.05;;;16.42;;
41661;SDS011;27351;45.992;12.666;2022-12-29T16:36:26;33.83;;;17.77;;
41661;SDS011;27351;45.992;12.666;2022-12-29T16:39:02;31.73;;;18.20;;